sensor_id;sensor_type;location;lat;lon;timestamp;temperature;humidity
69382;DHT22;56560;50.692;12.844;2023-04-08T00:01:09;4.00;81.20
69382;DHT22;56560;50.692;12.844;2023-04-08T00:03:35;3.90;82.10
69382;DHT22;56560;50.692;12.844;2023-04-08T00:06:01;3.90;82.60
69382;DHT22;56560;50.692;12.844;2023-04-08T00:08:27;4.00;82.10
69382;DHT22;56560;50.692;12.844;2023-04-08T00:10:53;4.00;82.50
69382;DHT22;56560;50.692;12.844;2023-04-08T00:13:19;4.00;81.30
69382;DHT22;56560;50.692;12.844;2023-04-08T00:15:45;4.00;81.60
69382;DHT22;56560;50.692;12.844;2023-04-08T00:18:10;4.00;82.20
69382;DHT22;56560;50.692;12.844;2023-04-08T00:20:36;4.00;81.40
69382;DHT22;56560;50.692;12.844;2023-04-08T00:23:02;3.90;82.00
69382;DHT22;56560;50.692;12.844;2023-04-08T00:25:27;3.90;82.70
69382;DHT22;56560;50.692;12.844;2023-04-08T00:27:53;3.90;82.60
69382;DHT22;56560;50.692;12.844;2023-04-08T00:30:19;4.00;82.40
69382;DHT22;56560;50.692;12.844;2023-04-08T00:32:44;4.00;82.00
69382;DHT22;56560;50.692;12.844;2023-04-08T00:35:10;4.00;81.50
69382;DHT22;56560;50.692;12.844;2023-04-08T00:37:37;4.00;82.80
69382;DHT22;56560;50.692;12.844;2023-04-08T00:40:03;4.00;82.70
69382;DHT22;56560;50.692;12.844;2023-04-08T00:42:29;4.10;82.90
69382;DHT22;56560;50.692;12.844;2023-04-08T00:44:55;4.10;82.90
69382;DHT22;56560;50.692;12.844;2023-04-08T00:47:21;4.00;82.10
69382;DHT22;56560;50.692;12.844;2023-04-08T00:49:47;3.90;82.00
69382;DHT22;56560;50.692;12.844;2023-04-08T00:52:12;3.90;82.20
69382;DHT22;56560;50.692;12.844;2023-04-08T00:54:40;3.80;83.10
69382;DHT22;56560;50.692;12.844;2023-04-08T00:57:06;3.70;82.50
69382;DHT22;56560;50.692;12.844;2023-04-08T00:59:32;3.70;82.50
69382;DHT22;56560;50.692;12.844;2023-04-08T01:07:28;3.70;83.00
69382;DHT22;56560;50.692;12.844;2023-04-08T01:09:58;3.70;82.70
69382;DHT22;56560;50.692;12.844;2023-04-08T01:12:26;3.80;82.60
69382;DHT22;56560;50.692;12.844;2023-04-08T01:15:00;3.80;82.40
69382;DHT22;56560;50.692;12.844;2023-04-08T01:17:28;3.90;81.30
69382;DHT22;56560;50.692;12.844;2023-04-08T01:19:57;3.90;81.10
69382;DHT22;56560;50.692;12.844;2023-04-08T01:25:15;3.80;81.80
69382;DHT22;56560;50.692;12.844;2023-04-08T01:27:42;3.90;80.90
69382;DHT22;56560;50.692;12.844;2023-04-08T01:30:08;3.90;80.30
69382;DHT22;56560;50.692;12.844;2023-04-08T01:32:34;3.90;80.70
69382;DHT22;56560;50.692;12.844;2023-04-08T01:35:01;4.00;80.90
69382;DHT22;56560;50.692;12.844;2023-04-08T01:37:28;4.00;80.80
69382;DHT22;56560;50.692;12.844;2023-04-08T01:39:55;4.00;80.40
69382;DHT22;56560;50.692;12.844;2023-04-08T01:42:27;4.00;80.00
69382;DHT22;56560;50.692;12.844;2023-04-08T01:44:56;3.90;80.70
69382;DHT22;56560;50.692;12.844;2023-04-08T01:47:22;3.90;81.50
69382;DHT22;56560;50.692;12.844;2023-04-08T01:49:51;3.80;81.90
69382;DHT22;56560;50.692;12.844;2023-04-08T01:52:19;3.80;82.20
69382;DHT22;56560;50.692;12.844;2023-04-08T01:54:46;3.80;81.10
69382;DHT22;56560;50.692;12.844;2023-04-08T01:57:16;3.80;81.70
69382;DHT22;56560;50.692;12.844;2023-04-08T01:59:46;3.80;81.70
69382;DHT22;56560;50.692;12.844;2023-04-08T02:02:13;3.80;81.30
69382;DHT22;56560;50.692;12.844;2023-04-08T02:04:39;3.90;81.30
69382;DHT22;56560;50.692;12.844;2023-04-08T02:07:08;3.80;81.10
69382;DHT22;56560;50.692;12.844;2023-04-08T02:09:36;3.80;81.40
69382;DHT22;56560;50.692;12.844;2023-04-08T02:12:01;3.90;81.00
69382;DHT22;56560;50.692;12.844;2023-04-08T02:14:28;3.90;81.00
69382;DHT22;56560;50.692;12.844;2023-04-08T02:17:13;3.90;81.40
69382;DHT22;56560;50.692;12.844;2023-04-08T02:20:02;3.80;82.00
69382;DHT22;56560;50.692;12.844;2023-04-08T02:25:03;3.90;82.30
69382;DHT22;56560;50.692;12.844;2023-04-08T02:27:33;3.80;82.30
69382;DHT22;56560;50.692;12.844;2023-04-08T02:30:02;3.90;82.20
69382;DHT22;56560;50.692;12.844;2023-04-08T02:32:30;3.90;81.90
69382;DHT22;56560;50.692;12.844;2023-04-08T02:34:58;3.90;81.90
69382;DHT22;56560;50.692;12.844;2023-04-08T02:37:26;4.00;81.60
69382;DHT22;56560;50.692;12.844;2023-04-08T02:39:52;4.00;81.20
69382;DHT22;56560;50.692;12.844;2023-04-08T02:42:18;4.00;81.20
69382;DHT22;56560;50.692;12.844;2023-04-08T02:44:43;4.00;81.90
69382;DHT22;56560;50.692;12.844;2023-04-08T02:47:09;4.00;81.50
69382;DHT22;56560;50.692;12.844;2023-04-08T02:49:35;4.00;82.10
69382;DHT22;56560;50.692;12.844;2023-04-08T02:52:00;4.00;81.60
69382;DHT22;56560;50.692;12.844;2023-04-08T02:54:26;4.00;81.90
69382;DHT22;56560;50.692;12.844;2023-04-08T02:56:52;4.00;82.00
69382;DHT22;56560;50.692;12.844;2023-04-08T02:59:17;4.00;82.20
69382;DHT22;56560;50.692;12.844;2023-04-08T03:01:43;4.00;82.00
69382;DHT22;56560;50.692;12.844;2023-04-08T03:04:09;4.00;81.70
69382;DHT22;56560;50.692;12.844;2023-04-08T03:06:34;4.00;82.00
69382;DHT22;56560;50.692;12.844;2023-04-08T03:09:00;4.00;81.50
69382;DHT22;56560;50.692;12.844;2023-04-08T03:11:25;4.00;82.20
69382;DHT22;56560;50.692;12.844;2023-04-08T03:13:51;4.00;81.90
69382;DHT22;56560;50.692;12.844;2023-04-08T03:16:17;4.00;82.20
69382;DHT22;56560;50.692;12.844;2023-04-08T03:18:42;4.10;82.70
69382;DHT22;56560;50.692;12.844;2023-04-08T03:21:08;4.10;82.20
69382;DHT22;56560;50.692;12.844;2023-04-08T03:23:34;4.10;82.60
69382;DHT22;56560;50.692;12.844;2023-04-08T03:25:59;4.20;82.20
69382;DHT22;56560;50.692;12.844;2023-04-08T03:28:25;4.20;81.60
69382;DHT22;56560;50.692;12.844;2023-04-08T03:30:51;4.20;81.60
69382;DHT22;56560;50.692;12.844;2023-04-08T03:33:17;4.20;82.30
69382;DHT22;56560;50.692;12.844;2023-04-08T03:35:42;4.10;82.40
69382;DHT22;56560;50.692;12.844;2023-04-08T03:38:08;4.10;82.80
69382;DHT22;56560;50.692;12.844;2023-04-08T03:40:33;4.10;82.80
69382;DHT22;56560;50.692;12.844;2023-04-08T03:42:59;4.10;82.60
69382;DHT22;56560;50.692;12.844;2023-04-08T03:45:25;4.00;83.00
69382;DHT22;56560;50.692;12.844;2023-04-08T03:47:50;4.10;83.10
69382;DHT22;56560;50.692;12.844;2023-04-08T03:50:16;4.00;82.80
69382;DHT22;56560;50.692;12.844;2023-04-08T03:52:42;4.00;83.10
69382;DHT22;56560;50.692;12.844;2023-04-08T03:55:08;4.00;83.50
69382;DHT22;56560;50.692;12.844;2023-04-08T03:57:33;4.10;83.50
69382;DHT22;56560;50.692;12.844;2023-04-08T03:59:59;4.10;83.40
69382;DHT22;56560;50.692;12.844;2023-04-08T04:02:25;4.20;83.30
69382;DHT22;56560;50.692;12.844;2023-04-08T04:04:50;4.20;82.80
69382;DHT22;56560;50.692;12.844;2023-04-08T04:07:16;4.10;83.30
69382;DHT22;56560;50.692;12.844;2023-04-08T04:09:41;4.20;83.40
69382;DHT22;56560;50.692;12.844;2023-04-08T04:12:07;4.20;83.70
69382;DHT22;56560;50.692;12.844;2023-04-08T04:14:33;4.10;84.20
69382;DHT22;56560;50.692;12.844;2023-04-08T04:16:58;4.10;84.00
69382;DHT22;56560;50.692;12.844;2023-04-08T04:19:24;4.10;83.90
69382;DHT22;56560;50.692;12.844;2023-04-08T04:21:49;4.10;84.30
69382;DHT22;56560;50.692;12.844;2023-04-08T04:24:15;4.10;84.10
69382;DHT22;56560;50.692;12.844;2023-04-08T04:26:41;4.10;84.40
69382;DHT22;56560;50.692;12.844;2023-04-08T04:29:06;4.10;84.70
69382;DHT22;56560;50.692;12.844;2023-04-08T04:31:32;4.10;84.50
69382;DHT22;56560;50.692;12.844;2023-04-08T04:33:58;4.10;84.10
69382;DHT22;56560;50.692;12.844;2023-04-08T04:36:23;4.10;84.50
69382;DHT22;56560;50.692;12.844;2023-04-08T04:38:49;4.10;84.30
69382;DHT22;56560;50.692;12.844;2023-04-08T04:41:16;4.10;84.70
69382;DHT22;56560;50.692;12.844;2023-04-08T04:43:42;4.20;84.60
69382;DHT22;56560;50.692;12.844;2023-04-08T04:46:08;4.20;84.60
69382;DHT22;56560;50.692;12.844;2023-04-08T04:48:34;4.10;84.60
69382;DHT22;56560;50.692;12.844;2023-04-08T04:51:00;4.10;85.00
69382;DHT22;56560;50.692;12.844;2023-04-08T04:53:28;4.10;85.80
69382;DHT22;56560;50.692;12.844;2023-04-08T04:55:53;4.20;85.20
69382;DHT22;56560;50.692;12.844;2023-04-08T04:58:19;4.30;84.90
69382;DHT22;56560;50.692;12.844;2023-04-08T05:00:45;4.30;84.60
69382;DHT22;56560;50.692;12.844;2023-04-08T05:03:11;4.30;84.90
69382;DHT22;56560;50.692;12.844;2023-04-08T05:05:40;4.50;84.50
69382;DHT22;56560;50.692;12.844;2023-04-08T05:08:06;4.60;84.60
69382;DHT22;56560;50.692;12.844;2023-04-08T05:10:32;4.60;85.10
69382;DHT22;56560;50.692;12.844;2023-04-08T05:12:57;4.70;84.80
69382;DHT22;56560;50.692;12.844;2023-04-08T05:15:23;4.70;85.50
69382;DHT22;56560;50.692;12.844;2023-04-08T05:17:49;4.50;86.50
69382;DHT22;56560;50.692;12.844;2023-04-08T05:20:14;4.50;87.00
69382;DHT22;56560;50.692;12.844;2023-04-08T05:22:40;4.40;88.00
69382;DHT22;56560;50.692;12.844;2023-04-08T05:25:07;4.50;87.80
69382;DHT22;56560;50.692;12.844;2023-04-08T05:27:32;4.50;87.70
69382;DHT22;56560;50.692;12.844;2023-04-08T05:29:58;4.50;87.50
69382;DHT22;56560;50.692;12.844;2023-04-08T05:32:24;4.50;87.70
69382;DHT22;56560;50.692;12.844;2023-04-08T05:34:50;4.50;87.90
69382;DHT22;56560;50.692;12.844;2023-04-08T05:37:15;4.60;87.80
69382;DHT22;56560;50.692;12.844;2023-04-08T05:39:41;4.50;87.90
69382;DHT22;56560;50.692;12.844;2023-04-08T05:42:07;4.50;88.10
69382;DHT22;56560;50.692;12.844;2023-04-08T05:44:32;4.40;87.90
69382;DHT22;56560;50.692;12.844;2023-04-08T05:46:58;4.40;88.60
69382;DHT22;56560;50.692;12.844;2023-04-08T05:49:24;4.40;88.30
69382;DHT22;56560;50.692;12.844;2023-04-08T05:51:50;4.40;89.20
69382;DHT22;56560;50.692;12.844;2023-04-08T05:54:16;4.40;88.50
69382;DHT22;56560;50.692;12.844;2023-04-08T05:56:41;4.40;89.30
69382;DHT22;56560;50.692;12.844;2023-04-08T05:59:07;4.50;89.30
69382;DHT22;56560;50.692;12.844;2023-04-08T06:01:33;4.50;88.80
69382;DHT22;56560;50.692;12.844;2023-04-08T06:03:58;4.60;88.80
69382;DHT22;56560;50.692;12.844;2023-04-08T06:06:24;4.50;88.30
69382;DHT22;56560;50.692;12.844;2023-04-08T06:08:50;4.50;89.20
69382;DHT22;56560;50.692;12.844;2023-04-08T06:11:17;4.60;88.50
69382;DHT22;56560;50.692;12.844;2023-04-08T06:13:42;4.60;88.20
69382;DHT22;56560;50.692;12.844;2023-04-08T06:16:15;4.50;88.30
69382;DHT22;56560;50.692;12.844;2023-04-08T06:18:41;4.50;88.00
69382;DHT22;56560;50.692;12.844;2023-04-08T06:21:07;4.40;88.90
69382;DHT22;56560;50.692;12.844;2023-04-08T06:23:33;4.50;88.80
69382;DHT22;56560;50.692;12.844;2023-04-08T06:25:59;4.50;89.10
69382;DHT22;56560;50.692;12.844;2023-04-08T06:28:24;4.60;89.10
69382;DHT22;56560;50.692;12.844;2023-04-08T06:30:50;4.70;89.00
69382;DHT22;56560;50.692;12.844;2023-04-08T06:33:16;4.80;88.90
69382;DHT22;56560;50.692;12.844;2023-04-08T06:35:42;4.80;88.30
69382;DHT22;56560;50.692;12.844;2023-04-08T06:38:07;4.90;88.50
69382;DHT22;56560;50.692;12.844;2023-04-08T06:40:33;4.80;88.50
69382;DHT22;56560;50.692;12.844;2023-04-08T06:42:58;4.90;88.20
69382;DHT22;56560;50.692;12.844;2023-04-08T06:45:24;4.90;88.50
69382;DHT22;56560;50.692;12.844;2023-04-08T06:47:50;4.90;87.50
69382;DHT22;56560;50.692;12.844;2023-04-08T06:50:16;4.90;88.20
69382;DHT22;56560;50.692;12.844;2023-04-08T06:52:41;5.00;88.20
69382;DHT22;56560;50.692;12.844;2023-04-08T06:55:07;5.00;87.90
69382;DHT22;56560;50.692;12.844;2023-04-08T06:57:33;5.00;87.80
69382;DHT22;56560;50.692;12.844;2023-04-08T06:59:58;5.10;88.10
69382;DHT22;56560;50.692;12.844;2023-04-08T07:02:24;5.10;87.10
69382;DHT22;56560;50.692;12.844;2023-04-08T07:04:50;5.10;87.30
69382;DHT22;56560;50.692;12.844;2023-04-08T07:07:16;5.10;87.50
69382;DHT22;56560;50.692;12.844;2023-04-08T07:09:41;5.20;87.10
69382;DHT22;56560;50.692;12.844;2023-04-08T07:12:10;5.30;87.10
69382;DHT22;56560;50.692;12.844;2023-04-08T07:14:36;5.40;85.70
69382;DHT22;56560;50.692;12.844;2023-04-08T07:17:01;5.40;86.60
69382;DHT22;56560;50.692;12.844;2023-04-08T07:19:27;5.50;86.20
69382;DHT22;56560;50.692;12.844;2023-04-08T07:21:53;5.70;85.50
69382;DHT22;56560;50.692;12.844;2023-04-08T07:24:18;5.80;84.80
69382;DHT22;56560;50.692;12.844;2023-04-08T07:26:44;5.80;84.20
69382;DHT22;56560;50.692;12.844;2023-04-08T07:29:09;5.80;84.00
69382;DHT22;56560;50.692;12.844;2023-04-08T07:31:35;5.80;84.10
69382;DHT22;56560;50.692;12.844;2023-04-08T07:34:01;5.70;84.50
69382;DHT22;56560;50.692;12.844;2023-04-08T07:36:27;5.70;83.80
69382;DHT22;56560;50.692;12.844;2023-04-08T07:38:53;5.70;85.20
69382;DHT22;56560;50.692;12.844;2023-04-08T07:41:18;5.70;85.60
69382;DHT22;56560;50.692;12.844;2023-04-08T07:43:45;5.90;84.80
69382;DHT22;56560;50.692;12.844;2023-04-08T07:46:11;6.00;83.20
69382;DHT22;56560;50.692;12.844;2023-04-08T07:48:36;5.90;83.80
69382;DHT22;56560;50.692;12.844;2023-04-08T07:51:04;5.80;84.60
69382;DHT22;56560;50.692;12.844;2023-04-08T07:53:30;5.90;84.50
69382;DHT22;56560;50.692;12.844;2023-04-08T07:55:56;6.00;84.30
69382;DHT22;56560;50.692;12.844;2023-04-08T07:58:22;6.20;83.40
69382;DHT22;56560;50.692;12.844;2023-04-08T08:00:48;6.20;83.50
69382;DHT22;56560;50.692;12.844;2023-04-08T08:03:13;6.30;83.40
69382;DHT22;56560;50.692;12.844;2023-04-08T08:05:39;6.30;83.40
69382;DHT22;56560;50.692;12.844;2023-04-08T08:08:05;6.40;82.80
69382;DHT22;56560;50.692;12.844;2023-04-08T08:10:32;6.30;82.50
69382;DHT22;56560;50.692;12.844;2023-04-08T08:12:58;6.20;83.30
69382;DHT22;56560;50.692;12.844;2023-04-08T08:15:23;6.20;83.50
69382;DHT22;56560;50.692;12.844;2023-04-08T08:17:49;6.10;82.60
69382;DHT22;56560;50.692;12.844;2023-04-08T08:20:15;6.00;82.80
69382;DHT22;56560;50.692;12.844;2023-04-08T08:22:41;6.00;84.10
69382;DHT22;56560;50.692;12.844;2023-04-08T08:25:07;6.10;84.80
69382;DHT22;56560;50.692;12.844;2023-04-08T08:27:34;6.20;83.20
69382;DHT22;56560;50.692;12.844;2023-04-08T08:30:01;6.30;83.20
69382;DHT22;56560;50.692;12.844;2023-04-08T08:32:28;6.50;81.60
69382;DHT22;56560;50.692;12.844;2023-04-08T08:34:53;6.50;81.90
69382;DHT22;56560;50.692;12.844;2023-04-08T08:37:19;6.60;81.60
69382;DHT22;56560;50.692;12.844;2023-04-08T08:39:45;6.80;81.90
69382;DHT22;56560;50.692;12.844;2023-04-08T08:42:24;6.90;80.30
69382;DHT22;56560;50.692;12.844;2023-04-08T08:44:50;6.70;81.50
69382;DHT22;56560;50.692;12.844;2023-04-08T08:47:16;6.60;81.80
69382;DHT22;56560;50.692;12.844;2023-04-08T08:49:43;6.60;81.70
69382;DHT22;56560;50.692;12.844;2023-04-08T08:52:09;6.70;82.90
69382;DHT22;56560;50.692;12.844;2023-04-08T08:54:36;6.70;82.10
69382;DHT22;56560;50.692;12.844;2023-04-08T08:57:02;6.60;81.90
69382;DHT22;56560;50.692;12.844;2023-04-08T08:59:27;6.60;82.50
69382;DHT22;56560;50.692;12.844;2023-04-08T09:01:53;6.70;83.30
69382;DHT22;56560;50.692;12.844;2023-04-08T09:04:20;6.90;82.70
69382;DHT22;56560;50.692;12.844;2023-04-08T09:06:50;7.00;83.00
69382;DHT22;56560;50.692;12.844;2023-04-08T09:09:50;7.20;81.40
69382;DHT22;56560;50.692;12.844;2023-04-08T09:12:16;7.60;81.10
69382;DHT22;56560;50.692;12.844;2023-04-08T09:14:42;7.90;79.50
69382;DHT22;56560;50.692;12.844;2023-04-08T09:17:08;8.10;77.80
69382;DHT22;56560;50.692;12.844;2023-04-08T09:19:33;8.30;76.90
69382;DHT22;56560;50.692;12.844;2023-04-08T09:22:06;8.60;76.70
69382;DHT22;56560;50.692;12.844;2023-04-08T09:24:33;8.80;74.50
69382;DHT22;56560;50.692;12.844;2023-04-08T09:26:58;8.90;74.40
69382;DHT22;56560;50.692;12.844;2023-04-08T09:29:24;9.00;74.50
69382;DHT22;56560;50.692;12.844;2023-04-08T09:31:55;9.10;73.80
69382;DHT22;56560;50.692;12.844;2023-04-08T09:34:21;9.00;74.20
69382;DHT22;56560;50.692;12.844;2023-04-08T09:36:51;8.70;75.30
69382;DHT22;56560;50.692;12.844;2023-04-08T09:39:17;8.60;75.70
69382;DHT22;56560;50.692;12.844;2023-04-08T09:41:43;8.50;74.30
69382;DHT22;56560;50.692;12.844;2023-04-08T09:44:10;8.40;76.30
69382;DHT22;56560;50.692;12.844;2023-04-08T09:52:10;8.50;76.00
69382;DHT22;56560;50.692;12.844;2023-04-08T09:57:16;8.60;76.10
69382;DHT22;56560;50.692;12.844;2023-04-08T09:59:59;8.60;76.00
69382;DHT22;56560;50.692;12.844;2023-04-08T10:02:29;8.60;76.00
69382;DHT22;56560;50.692;12.844;2023-04-08T10:04:58;8.60;76.20
69382;DHT22;56560;50.692;12.844;2023-04-08T10:07:24;8.70;74.90
69382;DHT22;56560;50.692;12.844;2023-04-08T10:09:51;8.70;75.90
69382;DHT22;56560;50.692;12.844;2023-04-08T10:12:17;8.80;75.00
69382;DHT22;56560;50.692;12.844;2023-04-08T10:25:28;9.20;73.70
69382;DHT22;56560;50.692;12.844;2023-04-08T10:27:55;9.50;73.00
69382;DHT22;56560;50.692;12.844;2023-04-08T10:32:56;10.00;70.60
69382;DHT22;56560;50.692;12.844;2023-04-08T10:35:36;10.20;70.90
69382;DHT22;56560;50.692;12.844;2023-04-08T10:38:02;10.60;69.50
69382;DHT22;56560;50.692;12.844;2023-04-08T10:40:33;10.60;68.20
69382;DHT22;56560;50.692;12.844;2023-04-08T10:43:00;10.40;67.30
69382;DHT22;56560;50.692;12.844;2023-04-08T10:45:26;10.00;68.10
69382;DHT22;56560;50.692;12.844;2023-04-08T10:47:52;9.60;68.20
69382;DHT22;56560;50.692;12.844;2023-04-08T10:50:19;9.40;70.10
69382;DHT22;56560;50.692;12.844;2023-04-08T10:52:50;9.30;70.40
69382;DHT22;56560;50.692;12.844;2023-04-08T10:55:22;9.00;70.80
69382;DHT22;56560;50.692;12.844;2023-04-08T10:57:49;9.00;71.40
69382;DHT22;56560;50.692;12.844;2023-04-08T11:00:30;9.10;70.80
69382;DHT22;56560;50.692;12.844;2023-04-08T11:03:00;9.10;71.40
69382;DHT22;56560;50.692;12.844;2023-04-08T11:05:26;9.50;68.70
69382;DHT22;56560;50.692;12.844;2023-04-08T11:07:51;10.00;67.00
69382;DHT22;56560;50.692;12.844;2023-04-08T11:10:17;10.60;67.30
69382;DHT22;56560;50.692;12.844;2023-04-08T11:12:43;11.20;65.90
69382;DHT22;56560;50.692;12.844;2023-04-08T11:15:09;11.40;64.90
69382;DHT22;56560;50.692;12.844;2023-04-08T11:17:38;11.70;62.80
69382;DHT22;56560;50.692;12.844;2023-04-08T11:20:05;11.60;60.10
69382;DHT22;56560;50.692;12.844;2023-04-08T11:22:31;11.20;62.90
69382;DHT22;56560;50.692;12.844;2023-04-08T11:24:59;11.00;63.80
69382;DHT22;56560;50.692;12.844;2023-04-08T11:27:25;11.00;62.40
69382;DHT22;56560;50.692;12.844;2023-04-08T11:29:55;11.20;62.50
69382;DHT22;56560;50.692;12.844;2023-04-08T11:32:21;11.50;62.80
69382;DHT22;56560;50.692;12.844;2023-04-08T11:34:48;11.60;61.30
69382;DHT22;56560;50.692;12.844;2023-04-08T11:37:14;11.60;61.70
69382;DHT22;56560;50.692;12.844;2023-04-08T11:39:44;11.70;60.40
69382;DHT22;56560;50.692;12.844;2023-04-08T11:42:31;11.50;61.20
69382;DHT22;56560;50.692;12.844;2023-04-08T11:44:57;11.40;61.70
69382;DHT22;56560;50.692;12.844;2023-04-08T11:47:32;11.40;62.10
69382;DHT22;56560;50.692;12.844;2023-04-08T11:49:58;11.40;60.70
69382;DHT22;56560;50.692;12.844;2023-04-08T11:52:45;11.20;61.10
69382;DHT22;56560;50.692;12.844;2023-04-08T11:55:20;10.90;62.00
69382;DHT22;56560;50.692;12.844;2023-04-08T11:57:46;10.50;62.90
69382;DHT22;56560;50.692;12.844;2023-04-08T12:00:12;9.80;65.30
69382;DHT22;56560;50.692;12.844;2023-04-08T12:02:39;9.30;67.70
69382;DHT22;56560;50.692;12.844;2023-04-08T12:05:05;9.20;67.60
69382;DHT22;56560;50.692;12.844;2023-04-08T12:07:32;9.00;68.70
69382;DHT22;56560;50.692;12.844;2023-04-08T12:09:57;9.10;67.30
69382;DHT22;56560;50.692;12.844;2023-04-08T12:12:23;9.40;67.90
69382;DHT22;56560;50.692;12.844;2023-04-08T12:14:49;9.70;66.30
69382;DHT22;56560;50.692;12.844;2023-04-08T12:17:14;10.00;65.90
69382;DHT22;56560;50.692;12.844;2023-04-08T12:19:40;10.10;63.80
69382;DHT22;56560;50.692;12.844;2023-04-08T12:22:06;10.30;62.50
69382;DHT22;56560;50.692;12.844;2023-04-08T12:24:32;10.20;62.00
69382;DHT22;56560;50.692;12.844;2023-04-08T12:26:57;10.10;61.40
69382;DHT22;56560;50.692;12.844;2023-04-08T12:29:23;10.20;63.30
69382;DHT22;56560;50.692;12.844;2023-04-08T12:31:49;10.30;62.70
69382;DHT22;56560;50.692;12.844;2023-04-08T12:34:14;10.20;61.60
69382;DHT22;56560;50.692;12.844;2023-04-08T12:36:41;10.10;61.90
69382;DHT22;56560;50.692;12.844;2023-04-08T12:39:07;10.00;63.40
69382;DHT22;56560;50.692;12.844;2023-04-08T12:41:33;10.10;63.30
69382;DHT22;56560;50.692;12.844;2023-04-08T12:43:58;10.30;63.50
69382;DHT22;56560;50.692;12.844;2023-04-08T12:46:24;10.30;62.40
69382;DHT22;56560;50.692;12.844;2023-04-08T12:48:50;10.20;62.30
69382;DHT22;56560;50.692;12.844;2023-04-08T12:51:16;10.20;63.10
69382;DHT22;56560;50.692;12.844;2023-04-08T12:53:41;10.10;62.80
69382;DHT22;56560;50.692;12.844;2023-04-08T12:56:07;10.00;63.00
69382;DHT22;56560;50.692;12.844;2023-04-08T12:58:32;9.80;63.30
69382;DHT22;56560;50.692;12.844;2023-04-08T13:00:58;9.80;64.00
69382;DHT22;56560;50.692;12.844;2023-04-08T13:03:24;9.80;64.70
69382;DHT22;56560;50.692;12.844;2023-04-08T13:05:50;9.50;65.20
69382;DHT22;56560;50.692;12.844;2023-04-08T13:08:16;9.20;66.40
69382;DHT22;56560;50.692;12.844;2023-04-08T13:10:42;9.10;66.40
69382;DHT22;56560;50.692;12.844;2023-04-08T13:13:07;9.00;68.00
69382;DHT22;56560;50.692;12.844;2023-04-08T13:15:33;9.20;67.20
69382;DHT22;56560;50.692;12.844;2023-04-08T13:17:59;9.40;66.60
69382;DHT22;56560;50.692;12.844;2023-04-08T13:20:25;9.70;65.70
69382;DHT22;56560;50.692;12.844;2023-04-08T13:22:52;9.90;64.90
69382;DHT22;56560;50.692;12.844;2023-04-08T13:25:17;10.10;64.60
69382;DHT22;56560;50.692;12.844;2023-04-08T13:27:43;10.40;63.40
69382;DHT22;56560;50.692;12.844;2023-04-08T13:30:09;10.60;62.70
69382;DHT22;56560;50.692;12.844;2023-04-08T13:32:35;10.60;61.50
69382;DHT22;56560;50.692;12.844;2023-04-08T13:35:01;10.10;62.40
69382;DHT22;56560;50.692;12.844;2023-04-08T13:37:26;9.90;63.70
69382;DHT22;56560;50.692;12.844;2023-04-08T13:39:52;9.70;64.60
69382;DHT22;56560;50.692;12.844;2023-04-08T13:42:18;9.50;65.30
69382;DHT22;56560;50.692;12.844;2023-04-08T13:44:44;9.40;66.80
69382;DHT22;56560;50.692;12.844;2023-04-08T13:47:10;9.20;66.20
69382;DHT22;56560;50.692;12.844;2023-04-08T13:49:36;9.00;66.70
69382;DHT22;56560;50.692;12.844;2023-04-08T13:52:01;9.00;66.90
69382;DHT22;56560;50.692;12.844;2023-04-08T13:54:27;9.00;67.00
69382;DHT22;56560;50.692;12.844;2023-04-08T13:56:52;9.20;67.40
69382;DHT22;56560;50.692;12.844;2023-04-08T13:59:18;9.60;66.40
69382;DHT22;56560;50.692;12.844;2023-04-08T14:01:44;10.20;65.20
69382;DHT22;56560;50.692;12.844;2023-04-08T14:04:09;10.50;63.30
69382;DHT22;56560;50.692;12.844;2023-04-08T14:06:36;10.60;62.30
69382;DHT22;56560;50.692;12.844;2023-04-08T14:09:02;10.70;61.30
69382;DHT22;56560;50.692;12.844;2023-04-08T14:11:27;10.70;61.30
69382;DHT22;56560;50.692;12.844;2023-04-08T14:13:53;10.70;61.90
69382;DHT22;56560;50.692;12.844;2023-04-08T14:16:19;10.60;61.90
69382;DHT22;56560;50.692;12.844;2023-04-08T14:18:44;10.50;63.10
69382;DHT22;56560;50.692;12.844;2023-04-08T14:21:10;10.50;62.60
69382;DHT22;56560;50.692;12.844;2023-04-08T14:23:38;10.40;62.50
69382;DHT22;56560;50.692;12.844;2023-04-08T14:26:04;10.40;62.30
69382;DHT22;56560;50.692;12.844;2023-04-08T14:28:30;10.40;62.20
69382;DHT22;56560;50.692;12.844;2023-04-08T14:30:56;10.30;62.50
69382;DHT22;56560;50.692;12.844;2023-04-08T14:33:21;10.30;63.00
69382;DHT22;56560;50.692;12.844;2023-04-08T14:35:47;10.50;62.20
69382;DHT22;56560;50.692;12.844;2023-04-08T14:38:13;10.60;61.70
69382;DHT22;56560;50.692;12.844;2023-04-08T14:40:39;10.60;61.20
69382;DHT22;56560;50.692;12.844;2023-04-08T14:43:05;10.60;61.60
69382;DHT22;56560;50.692;12.844;2023-04-08T14:45:31;10.40;62.30
69382;DHT22;56560;50.692;12.844;2023-04-08T14:47:57;10.20;62.50
69382;DHT22;56560;50.692;12.844;2023-04-08T14:50:23;10.00;62.90
69382;DHT22;56560;50.692;12.844;2023-04-08T14:52:48;9.80;63.70
69382;DHT22;56560;50.692;12.844;2023-04-08T14:55:14;9.60;65.20
69382;DHT22;56560;50.692;12.844;2023-04-08T14:57:40;9.50;64.80
69382;DHT22;56560;50.692;12.844;2023-04-08T15:00:06;9.20;66.60
69382;DHT22;56560;50.692;12.844;2023-04-08T15:02:32;9.10;67.10
69382;DHT22;56560;50.692;12.844;2023-04-08T15:04:58;9.20;67.00
69382;DHT22;56560;50.692;12.844;2023-04-08T15:07:24;9.40;66.30
69382;DHT22;56560;50.692;12.844;2023-04-08T15:09:49;9.50;65.20
69382;DHT22;56560;50.692;12.844;2023-04-08T15:12:15;9.50;65.50
69382;DHT22;56560;50.692;12.844;2023-04-08T15:14:40;9.50;65.40
69382;DHT22;56560;50.692;12.844;2023-04-08T15:17:06;9.20;66.40
69382;DHT22;56560;50.692;12.844;2023-04-08T15:19:35;9.00;67.50
69382;DHT22;56560;50.692;12.844;2023-04-08T15:22:00;8.70;68.50
69382;DHT22;56560;50.692;12.844;2023-04-08T15:24:26;8.50;69.50
69382;DHT22;56560;50.692;12.844;2023-04-08T15:26:52;8.30;70.50
69382;DHT22;56560;50.692;12.844;2023-04-08T15:29:17;8.30;71.40
69382;DHT22;56560;50.692;12.844;2023-04-08T15:31:43;8.30;71.10
69382;DHT22;56560;50.692;12.844;2023-04-08T15:34:09;8.20;71.70
69382;DHT22;56560;50.692;12.844;2023-04-08T15:36:34;8.10;71.60
69382;DHT22;56560;50.692;12.844;2023-04-08T15:39:01;8.10;70.50
69382;DHT22;56560;50.692;12.844;2023-04-08T15:41:27;7.90;72.10
69382;DHT22;56560;50.692;12.844;2023-04-08T15:43:54;7.80;72.10
69382;DHT22;56560;50.692;12.844;2023-04-08T15:46:20;7.90;72.00
69382;DHT22;56560;50.692;12.844;2023-04-08T15:48:46;8.00;71.70
69382;DHT22;56560;50.692;12.844;2023-04-08T15:51:12;8.00;71.50
69382;DHT22;56560;50.692;12.844;2023-04-08T15:53:41;8.00;71.70
69382;DHT22;56560;50.692;12.844;2023-04-08T15:56:16;8.10;71.90